createdAt,value
2023-01-30T00:01:00.557Z,101487.91
2023-01-30T00:03:27.099Z,101487.06
2023-01-30T00:05:53.705Z,101499.06
2023-01-30T00:08:20.347Z,101497.31
2023-01-30T00:10:47.236Z,101509.16
2023-01-30T00:13:14.643Z,101507.50
2023-01-30T00:15:50.153Z,101496.28
2023-01-30T00:18:16.558Z,101491.97
2023-01-30T00:20:42.939Z,101480.72
2023-01-30T00:23:09.331Z,101478.09
2023-01-30T00:25:35.835Z,101472.09
2023-01-30T00:28:02.682Z,101475.31
2023-01-30T00:30:29.985Z,101479.44
2023-01-30T00:32:57.872Z,101463.38
2023-01-30T00:35:28.371Z,101477.72
2023-01-30T00:37:58.391Z,101457.13
2023-01-30T00:40:25.651Z,101457.19
2023-01-30T00:46:03.179Z,101445.78
2023-01-30T00:48:29.747Z,101441.75
2023-01-30T00:50:56.359Z,101429.44
2023-01-30T00:53:22.771Z,101419.50
2023-01-30T00:55:51.045Z,101422.06
2023-01-30T00:58:17.511Z,101422.63
2023-01-30T01:00:43.937Z,101412.13
2023-01-30T01:03:10.565Z,101420.59
2023-01-30T01:05:37.005Z,101411.22
2023-01-30T01:08:03.860Z,101402.56
2023-01-30T01:10:30.242Z,101407.72
2023-01-30T01:12:57.325Z,101413.59
2023-01-30T01:15:24.468Z,101401.66
2023-01-30T01:17:50.871Z,101402.38
2023-01-30T01:20:18.232Z,101397.31
2023-01-30T01:22:44.691Z,101392.88
2023-01-30T01:25:11.338Z,101382.59
2023-01-30T01:27:39.439Z,101386.00
2023-01-30T01:30:06.327Z,101387.75
2023-01-30T01:32:32.734Z,101385.09
2023-01-30T01:34:59.129Z,101388.50
2023-01-30T01:37:25.626Z,101384.44
2023-01-30T01:40:10.736Z,101380.66
2023-01-30T01:42:37.761Z,101366.03
2023-01-30T01:45:14.178Z,101375.50
2023-01-30T01:47:43.382Z,101372.22
2023-01-30T01:50:14.867Z,101372.13
2023-01-30T01:52:42.355Z,101366.69
2023-01-30T01:55:09.118Z,101377.59
2023-01-30T01:57:39.980Z,101378.25
2023-01-30T02:00:11.516Z,101376.16
2023-01-30T02:02:43.692Z,101361.16
2023-01-30T02:05:12.656Z,101355.16
2023-01-30T02:07:42.192Z,101349.81
2023-01-30T02:10:09.866Z,101340.16
2023-01-30T02:12:36.801Z,101346.22
2023-01-30T02:15:04.011Z,101337.84
2023-01-30T02:17:30.383Z,101336.81
2023-01-30T02:20:15.407Z,101318.59
2023-01-30T02:23:01.278Z,101326.34
2023-01-30T02:25:27.663Z,101318.59
2023-01-30T02:28:03.209Z,101315.09
2023-01-30T02:30:42.713Z,101310.34
2023-01-30T02:33:17.511Z,101297.34
2023-01-30T02:35:55.642Z,101295.31
2023-01-30T02:38:28.173Z,101294.38
2023-01-30T02:40:56.253Z,101289.88
2023-01-30T02:43:23.719Z,101276.06
2023-01-30T02:46:05.452Z,101269.44
2023-01-30T02:48:34.909Z,101270.81
2023-01-30T02:51:04.911Z,101269.97
2023-01-30T02:53:35.588Z,101268.16
2023-01-30T02:56:03.186Z,101260.19
2023-01-30T02:58:32.927Z,101250.63
2023-01-30T03:01:08.545Z,101250.81
2023-01-30T03:03:49.861Z,101255.16
2023-01-30T03:06:19.273Z,101260.91
2023-01-30T03:09:06.027Z,101246.38
2023-01-30T03:11:42.601Z,101245.47
2023-01-30T03:14:30.163Z,101250.53
2023-01-30T03:16:58.840Z,101243.50
2023-01-30T03:19:26.654Z,101248.66
2023-01-30T03:21:53.058Z,101241.06
2023-01-30T03:24:20.550Z,101243.63
2023-01-30T03:26:49.261Z,101247.63
2023-01-30T03:29:15.923Z,101243.41
2023-01-30T03:31:42.583Z,101237.25
2023-01-30T03:34:09.185Z,101230.34
2023-01-30T03:36:35.724Z,101240.22
2023-01-30T03:39:02.130Z,101236.09
2023-01-30T03:41:28.640Z,101240.13
2023-01-30T03:43:55.057Z,101223.31
2023-01-30T03:46:22.167Z,101213.72
2023-01-30T03:48:48.701Z,101216.09
2023-01-30T03:51:16.278Z,101197.53
2023-01-30T03:53:42.732Z,101200.94
2023-01-30T03:56:11.222Z,101187.03
2023-01-30T03:58:38.284Z,101187.75
2023-01-30T04:01:20.123Z,101190.44
2023-01-30T04:03:46.897Z,101180.13
2023-01-30T04:06:14.116Z,101192.72
2023-01-30T04:08:40.936Z,101188.81
2023-01-30T04:11:10.201Z,101180.97
2023-01-30T04:13:36.649Z,101184.25
2023-01-30T04:16:16.269Z,101175.91
2023-01-30T04:19:18.089Z,101166.00
2023-01-30T04:21:44.880Z,101162.63
2023-01-30T04:24:11.959Z,101156.63
2023-01-30T04:26:38.611Z,101162.28
2023-01-30T04:29:05.494Z,101153.31
2023-01-30T04:31:33.093Z,101154.66
2023-01-30T04:34:14.487Z,101158.69
2023-01-30T04:36:41.735Z,101158.06
2023-01-30T04:39:08.861Z,101163.09
2023-01-30T04:41:35.289Z,101152.69
2023-01-30T04:44:02.213Z,101155.28
2023-01-30T04:46:39.877Z,101152.28
2023-01-30T04:49:06.302Z,101158.38
2023-01-30T04:51:32.982Z,101154.88
2023-01-30T04:54:00.154Z,101153.09
2023-01-30T04:56:26.760Z,101158.97
2023-01-30T04:58:53.184Z,101154.03
2023-01-30T05:01:23.627Z,101160.22
2023-01-30T05:03:53.823Z,101154.94
2023-01-30T05:06:20.432Z,101153.22
2023-01-30T05:08:53.927Z,101160.72
2023-01-30T05:11:20.758Z,101158.16
2023-01-30T05:13:47.336Z,101150.53
2023-01-30T05:16:14.582Z,101149.47
2023-01-30T05:18:41.582Z,101147.84
2023-01-30T05:21:09.245Z,101138.47
2023-01-30T05:23:35.699Z,101146.91
2023-01-30T05:26:02.394Z,101151.03
2023-01-30T05:28:29.184Z,101155.16
2023-01-30T05:31:00.536Z,101153.69
2023-01-30T05:33:27.071Z,101156.69
2023-01-30T05:35:53.397Z,101155.38
2023-01-30T05:38:19.818Z,101152.38
2023-01-30T05:40:46.191Z,101149.06
2023-01-30T05:43:12.583Z,101138.03
2023-01-30T05:45:39.190Z,101139.06
2023-01-30T05:48:05.739Z,101146.38
2023-01-30T05:50:32.267Z,101134.53
2023-01-30T05:52:58.702Z,101134.53
2023-01-30T05:55:25.106Z,101123.38
2023-01-30T05:57:51.517Z,101121.31
2023-01-30T06:00:18.257Z,101124.59
2023-01-30T06:02:44.673Z,101119.56
2023-01-30T06:05:11.203Z,101115.09
2023-01-30T06:07:37.575Z,101125.66
2023-01-30T06:10:04.073Z,101127.41
2023-01-30T06:12:30.497Z,101128.13
2023-01-30T06:14:57.163Z,101127.69
2023-01-30T06:17:23.569Z,101120.25
2023-01-30T06:19:49.932Z,101139.97
2023-01-30T06:22:16.298Z,101149.44
2023-01-30T06:24:42.674Z,101164.09
2023-01-30T06:27:09.018Z,101166.59
2023-01-30T06:29:35.398Z,101155.94
2023-01-30T06:32:01.947Z,101153.34
2023-01-30T06:34:28.371Z,101162.84
2023-01-30T06:36:54.736Z,101166.16
2023-01-30T06:39:21.129Z,101169.06
2023-01-30T06:41:47.814Z,101163.91
2023-01-30T06:44:14.190Z,101156.88
2023-01-30T06:46:40.558Z,101170.47
2023-01-30T06:49:06.990Z,101171.31
2023-01-30T06:51:33.367Z,101171.81
2023-01-30T06:53:59.709Z,101172.75
2023-01-30T06:56:26.055Z,101179.34
2023-01-30T06:58:52.419Z,101180.16
2023-01-30T07:01:19.360Z,101183.44
2023-01-30T07:03:45.845Z,101196.34
2023-01-30T07:06:12.254Z,101176.34
2023-01-30T07:08:38.710Z,101185.22
2023-01-30T07:11:05.295Z,101186.75
2023-01-30T07:13:31.650Z,101183.56
2023-01-30T07:15:58.011Z,101179.94
2023-01-30T07:18:24.451Z,101183.56
2023-01-30T07:20:50.895Z,101164.13
2023-01-30T07:23:18.009Z,101167.47
2023-01-30T07:25:44.499Z,101181.19
2023-01-30T07:28:11.069Z,101188.28
2023-01-30T07:30:37.488Z,101185.41
2023-01-30T07:33:04.990Z,101185.59
2023-01-30T07:35:32.186Z,101176.97
2023-01-30T07:37:58.642Z,101180.44
2023-01-30T07:40:25.332Z,101179.31
2023-01-30T07:43:02.119Z,101171.38
2023-01-30T07:45:29.924Z,101185.91
2023-01-30T07:47:56.311Z,101182.38
2023-01-30T07:50:22.718Z,101187.31
2023-01-30T07:52:49.125Z,101192.09
2023-01-30T07:55:15.854Z,101198.88
2023-01-30T07:57:42.737Z,101199.75
2023-01-30T08:00:10.798Z,101209.81
2023-01-30T08:02:37.290Z,101201.88
2023-01-30T08:05:06.103Z,101194.03
2023-01-30T08:07:32.678Z,101198.25
2023-01-30T08:09:59.077Z,101210.53
2023-01-30T08:12:25.448Z,101214.00
2023-01-30T08:14:51.832Z,101210.41
2023-01-30T08:17:18.211Z,101209.78
2023-01-30T08:19:44.601Z,101208.66
2023-01-30T08:22:10.993Z,101194.94
2023-01-30T08:24:37.382Z,101197.63
2023-01-30T08:27:03.824Z,101207.09
2023-01-30T08:29:30.288Z,101212.06
2023-01-30T08:31:57.413Z,101221.31
2023-01-30T08:34:23.999Z,101232.00
2023-01-30T08:36:50.438Z,101229.28
2023-01-30T08:39:16.839Z,101232.81
2023-01-30T08:41:43.257Z,101239.78
2023-01-30T08:44:10.282Z,101233.47
2023-01-30T08:46:37.473Z,101227.94
2023-01-30T08:49:04.171Z,101239.06
2023-01-30T08:51:30.688Z,101231.22
2023-01-30T08:53:57.126Z,101234.53
2023-01-30T08:56:23.533Z,101244.50
2023-01-30T08:58:49.965Z,101252.75
2023-01-30T09:01:16.763Z,101253.94
2023-01-30T09:03:43.231Z,101262.13
2023-01-30T09:06:09.682Z,101270.38
2023-01-30T09:08:36.069Z,101266.47
2023-01-30T09:11:04.335Z,101277.44
2023-01-30T09:13:31.436Z,101265.72
2023-01-30T09:15:58.449Z,101265.16
2023-01-30T09:18:25.069Z,101254.19
2023-01-30T09:20:52.799Z,101249.16
2023-01-30T09:23:20.144Z,101244.44
2023-01-30T09:25:46.756Z,101233.97
2023-01-30T09:28:13.315Z,101243.16
2023-01-30T09:30:39.773Z,101252.56
2023-01-30T09:33:06.294Z,101248.22
2023-01-30T09:35:32.701Z,101255.63
2023-01-30T09:37:59.280Z,101254.47
2023-01-30T09:40:31.412Z,101267.16
2023-01-30T09:43:16.818Z,101273.78
2023-01-30T09:45:52.388Z,101271.66
2023-01-30T09:48:29.345Z,101269.19
2023-01-30T09:51:03.667Z,101270.81
2023-01-30T09:53:37.244Z,101276.97
2023-01-30T09:56:03.982Z,101278.00
2023-01-30T09:58:37.411Z,101275.94
2023-01-30T10:01:07.476Z,101284.66
2023-01-30T10:03:38.384Z,101281.13
2023-01-30T10:06:11.689Z,101271.88
2023-01-30T10:09:02.532Z,101279.16
2023-01-30T10:11:47.923Z,101283.78
2023-01-30T10:14:32.747Z,101290.72
2023-01-30T10:17:01.984Z,101287.06
2023-01-30T10:19:36.306Z,101299.41
2023-01-30T10:22:19.271Z,101303.66
2023-01-30T10:25:04.624Z,101291.31
2023-01-30T10:27:32.760Z,101302.72
2023-01-30T10:30:01.904Z,101304.84
2023-01-30T10:32:37.533Z,101298.84
2023-01-30T10:35:13.635Z,101302.13
2023-01-30T10:37:44.480Z,101287.28
2023-01-30T10:40:26.494Z,101280.94
2023-01-30T10:42:58.579Z,101296.47
2023-01-30T10:45:48.280Z,101300.00
2023-01-30T10:48:17.704Z,101309.28
2023-01-30T10:50:53.154Z,101306.84
2023-01-30T10:53:22.761Z,101320.47
2023-01-30T10:55:52.489Z,101322.38
2023-01-30T10:58:23.986Z,101313.91
2023-01-30T11:01:10.637Z,101313.09
2023-01-30T11:03:55.801Z,101310.13
2023-01-30T11:06:23.890Z,101313.78
2023-01-30T11:08:50.656Z,101313.66
2023-01-30T11:11:43.574Z,101311.19
2023-01-30T11:14:11.139Z,101319.06
2023-01-30T11:16:43.367Z,101317.88
2023-01-30T11:19:25.734Z,101316.25
2023-01-30T11:21:56.552Z,101317.19
2023-01-30T11:24:24.344Z,101317.19
2023-01-30T11:26:52.461Z,101311.78
2023-01-30T11:29:25.168Z,101308.00
2023-01-30T11:31:52.331Z,101316.13
2023-01-30T11:34:20.211Z,101314.38
2023-01-30T11:36:47.245Z,101310.25
2023-01-30T11:39:14.005Z,101332.50
2023-01-30T11:41:44.455Z,101324.25
2023-01-30T11:44:11.258Z,101323.53
2023-01-30T11:46:38.602Z,101328.72
2023-01-30T11:49:44.557Z,101330.47
2023-01-30T11:51:59.655Z,101329.31
2023-01-30T11:54:32.241Z,101330.94
2023-01-30T11:56:59.257Z,101323.31
2023-01-30T11:59:39.345Z,101332.72
2023-01-30T12:02:16.600Z,101326.59
2023-01-30T12:04:44.226Z,101317.88
2023-01-30T12:07:27.403Z,101325.66
2023-01-30T12:09:54.941Z,101327.28
2023-01-30T12:12:27.458Z,101328.22
2023-01-30T12:14:57.948Z,101325.91
2023-01-30T12:17:33.205Z,101326.59
2023-01-30T12:19:59.704Z,101335.06
2023-01-30T12:22:37.785Z,101324.00
2023-01-30T12:25:20.561Z,101334.22
2023-01-30T12:28:01.895Z,101333.88
2023-01-30T12:30:42.568Z,101332.25
2023-01-30T12:33:12.898Z,101325.78
2023-01-30T12:35:58.136Z,101320.59
2023-01-30T12:38:24.545Z,101327.06
2023-01-30T12:40:56.304Z,101315.75
2023-01-30T12:43:28.769Z,101315.63
2023-01-30T12:46:01.851Z,101319.78
2023-01-30T12:48:44.097Z,101323.75
2023-01-30T12:51:23.647Z,101328.09
2023-01-30T12:54:00.554Z,101334.00
2023-01-30T12:56:29.983Z,101330.00
2023-01-30T12:59:05.490Z,101330.13
2023-01-30T13:01:31.978Z,101337.41
2023-01-30T13:04:03.539Z,101339.53
2023-01-30T13:06:35.941Z,101344.59
2023-01-30T13:09:10.490Z,101359.19
2023-01-30T13:11:48.879Z,101364.00
2023-01-30T13:14:22.640Z,101357.41
2023-01-30T13:17:08.012Z,101357.31
2023-01-30T13:19:49.688Z,101357.06
2023-01-30T13:22:22.684Z,101364.69
2023-01-30T13:24:58.354Z,101368.03
2023-01-30T13:27:26.982Z,101381.53
2023-01-30T13:29:53.927Z,101372.81
2023-01-30T13:32:34.053Z,101382.75
2023-01-30T13:35:01.456Z,101382.63
2023-01-30T13:37:29.016Z,101384.84
2023-01-30T13:40:02.468Z,101387.53
2023-01-30T13:42:50.041Z,101396.25
2023-01-30T13:45:24.927Z,101397.69
2023-01-30T13:48:06.714Z,101408.75
2023-01-30T13:50:51.978Z,101402.03
2023-01-30T13:53:21.743Z,101411.59
2023-01-30T13:56:16.231Z,101418.41
2023-01-30T13:59:01.436Z,101404.50
2023-01-30T14:01:49.427Z,101406.28
2023-01-30T14:04:48.311Z,101412.16
2023-01-30T14:07:14.726Z,101419.81
2023-01-30T14:09:46.245Z,101422.16
2023-01-30T14:12:23.769Z,101435.94
2023-01-30T14:15:00.954Z,101443.16
2023-01-30T14:17:27.597Z,101435.38
2023-01-30T14:20:13.091Z,101433.47
2023-01-30T14:22:56.541Z,101441.81
2023-01-30T14:25:23.070Z,101449.38
2023-01-30T14:27:52.633Z,101447.94
2023-01-30T14:30:31.313Z,101448.78
2023-01-30T14:32:58.881Z,101449.84
2023-01-30T14:35:26.336Z,101453.50
2023-01-30T14:38:12.715Z,101449.72
2023-01-30T14:40:40.175Z,101457.75
2023-01-30T14:43:12.709Z,101464.31
2023-01-30T14:45:45.135Z,101463.41
2023-01-30T14:48:26.348Z,101471.88
2023-01-30T14:51:11.509Z,101475.88
2023-01-30T14:53:48.518Z,101475.50
2023-01-30T14:56:15.285Z,101477.41
2023-01-30T14:58:51.073Z,101493.66
2023-01-30T15:01:17.718Z,101501.31
2023-01-30T15:03:48.948Z,101495.41
2023-01-30T15:06:16.129Z,101508.00
2023-01-30T15:08:43.717Z,101512.03
2023-01-30T15:11:27.477Z,101524.28
2023-01-30T15:13:59.958Z,101523.56
2023-01-30T15:16:29.556Z,101533.84
2023-01-30T15:19:08.026Z,101533.94
2023-01-30T15:21:43.733Z,101539.09
2023-01-30T15:24:18.517Z,101538.28
2023-01-30T15:26:50.977Z,101544.53
2023-01-30T15:29:29.792Z,101553.94
2023-01-30T15:32:00.548Z,101553.13
2023-01-30T15:34:28.353Z,101564.53
2023-01-30T15:36:54.729Z,101574.91
2023-01-30T15:39:22.318Z,101579.25
2023-01-30T15:41:49.368Z,101571.59
2023-01-30T15:44:29.754Z,101577.84
2023-01-30T15:47:11.508Z,101574.53
2023-01-30T15:49:52.046Z,101584.81
2023-01-30T15:52:19.624Z,101582.91
2023-01-30T15:54:53.378Z,101588.44
2023-01-30T15:57:29.366Z,101591.47
2023-01-30T15:59:56.917Z,101604.53
2023-01-30T16:02:23.384Z,101606.44
2023-01-30T16:04:51.292Z,101606.31
2023-01-30T16:07:23.507Z,101609.84
2023-01-30T16:10:11.363Z,101609.94
2023-01-30T16:12:40.815Z,101621.13
2023-01-30T16:15:20.006Z,101616.19
2023-01-30T16:17:53.084Z,101608.16
2023-01-30T16:20:22.189Z,101623.13
2023-01-30T16:22:48.821Z,101631.00
2023-01-30T16:25:19.949Z,101636.63
2023-01-30T16:27:48.556Z,101646.19
2023-01-30T16:30:19.954Z,101650.50
2023-01-30T16:32:46.650Z,101657.69
2023-01-30T16:35:18.455Z,101661.31
2023-01-30T16:37:45.107Z,101663.88
2023-01-30T16:40:11.466Z,101666.59
2023-01-30T16:42:37.955Z,101662.38
2023-01-30T16:45:04.310Z,101680.25
2023-01-30T16:47:31.532Z,101680.38
2023-01-30T16:49:58.033Z,101677.78
2023-01-30T16:52:30.644Z,101690.59
2023-01-30T16:54:59.431Z,101687.44
2023-01-30T16:57:31.629Z,101685.53
2023-01-30T16:59:58.550Z,101696.97
2023-01-30T17:02:28.727Z,101704.00
2023-01-30T17:04:55.393Z,101704.44
2023-01-30T17:07:32.660Z,101704.00
2023-01-30T17:09:59.076Z,101707.53
2023-01-30T17:12:25.521Z,101714.91
2023-01-30T17:15:21.375Z,101716.53
2023-01-30T17:17:47.992Z,101721.00
2023-01-30T17:20:18.132Z,101728.78
2023-01-30T17:22:46.392Z,101725.38
2023-01-30T17:25:32.834Z,101731.59
2023-01-30T17:28:02.348Z,101739.38
2023-01-30T17:30:28.788Z,101730.03
2023-01-30T17:32:55.191Z,101729.22
2023-01-30T17:35:21.938Z,101738.63
2023-01-30T17:37:59.884Z,101748.88
2023-01-30T17:40:36.081Z,101748.16
2023-01-30T17:43:02.459Z,101755.22
2023-01-30T17:45:29.108Z,101748.28
2023-01-30T17:47:55.892Z,101766.50
2023-01-30T17:50:23.037Z,101769.19
2023-01-30T17:52:49.457Z,101774.28
2023-01-30T17:55:16.165Z,101779.34
2023-01-30T17:57:44.313Z,101775.28
2023-01-30T18:00:20.694Z,101782.34
2023-01-30T18:02:47.501Z,101794.47
2023-01-30T18:05:14.464Z,101787.72
2023-01-30T18:07:41.335Z,101796.66
2023-01-30T18:10:08.530Z,101792.59
2023-01-30T18:12:34.970Z,101796.13
2023-01-30T18:15:01.400Z,101810.00
2023-01-30T18:17:28.461Z,101808.31
2023-01-30T18:19:55.176Z,101816.09
2023-01-30T18:22:21.920Z,101809.47
2023-01-30T18:24:48.322Z,101813.00
2023-01-30T18:27:14.774Z,101819.91
2023-01-30T18:29:41.277Z,101815.78
2023-01-30T18:32:07.693Z,101813.31
2023-01-30T18:34:34.228Z,101827.19
2023-01-30T18:37:00.670Z,101821.19
2023-01-30T18:39:27.123Z,101824.69
2023-01-30T18:41:53.601Z,101826.44
2023-01-30T18:44:20.045Z,101824.97
2023-01-30T18:46:46.676Z,101824.16
2023-01-30T18:49:13.170Z,101829.50
2023-01-30T18:51:40.379Z,101827.03
2023-01-30T18:54:06.806Z,101826.28
2023-01-30T18:56:33.806Z,101829.09
2023-01-30T18:59:04.327Z,101823.91
2023-01-30T19:01:38.779Z,101833.44
2023-01-30T19:04:07.202Z,101838.72
2023-01-30T19:06:35.501Z,101837.97
2023-01-30T19:09:02.023Z,101842.31
2023-01-30T19:11:47.099Z,101843.38
2023-01-30T19:14:14.527Z,101851.19
2023-01-30T19:16:41.202Z,101851.31
2023-01-30T19:19:08.531Z,101854.81
2023-01-30T19:21:35.276Z,101854.09
2023-01-30T19:24:02.568Z,101857.63
2023-01-30T19:26:29.396Z,101861.13
2023-01-30T19:28:55.930Z,101863.09
2023-01-30T19:31:22.437Z,101868.38
2023-01-30T19:33:53.589Z,101865.03
2023-01-30T19:36:21.141Z,101877.97
2023-01-30T19:38:48.323Z,101877.03
2023-01-30T19:41:15.900Z,101877.25
2023-01-30T19:43:42.718Z,101892.94
2023-01-30T19:46:10.916Z,101886.22
2023-01-30T19:48:38.440Z,101888.91
2023-01-30T19:51:14.463Z,101895.75
2023-01-30T19:53:41.680Z,101901.09
2023-01-30T19:56:08.860Z,101900.25
2023-01-30T19:58:35.929Z,101898.63
2023-01-30T20:01:09.700Z,101902.13
2023-01-30T20:03:37.057Z,101902.31
2023-01-30T20:06:12.881Z,101909.25
2023-01-30T20:08:40.024Z,101912.84
2023-01-30T20:11:10.983Z,101920.78
2023-01-30T20:13:38.209Z,101926.72
2023-01-30T20:16:06.490Z,101929.47
2023-01-30T20:18:35.102Z,101933.72
2023-01-30T20:21:11.635Z,101933.94
2023-01-30T20:23:38.749Z,101944.38
2023-01-30T20:26:05.758Z,101948.78
2023-01-30T20:28:32.605Z,101947.22
2023-01-30T20:30:59.750Z,101952.41
2023-01-30T20:33:26.750Z,101947.41
2023-01-30T20:35:53.186Z,101960.44
2023-01-30T20:38:19.614Z,101955.47
2023-01-30T20:40:47.264Z,101958.13
2023-01-30T20:43:13.659Z,101952.94
2023-01-30T20:45:40.155Z,101957.28
2023-01-30T20:48:06.654Z,101953.31
2023-01-30T20:50:33.453Z,101954.16
2023-01-30T20:52:59.850Z,101955.09
2023-01-30T20:55:26.247Z,101956.00
2023-01-30T20:57:52.622Z,101959.63
2023-01-30T21:00:19.348Z,101961.44
2023-01-30T21:02:50.128Z,101964.97
2023-01-30T21:05:19.242Z,101965.06
2023-01-30T21:07:45.836Z,101960.72
2023-01-30T21:10:12.379Z,101968.59
2023-01-30T21:12:39.293Z,101969.50
2023-01-30T21:15:06.002Z,101966.16
2023-01-30T21:17:32.422Z,101971.34
2023-01-30T21:19:58.831Z,101977.88
2023-01-30T21:22:25.292Z,101977.16
2023-01-30T21:24:51.665Z,101979.44
2023-01-30T21:27:19.396Z,101966.63
2023-01-30T21:29:45.864Z,101974.38
2023-01-30T21:32:12.396Z,101976.41
2023-01-30T21:34:39.239Z,101980.66
2023-01-30T21:37:24.434Z,101984.06
2023-01-30T21:40:09.303Z,101995.06
2023-01-30T21:42:54.259Z,101988.66
2023-01-30T21:45:21.785Z,101984.00
2023-01-30T21:47:52.172Z,101983.59
2023-01-30T21:50:18.676Z,101986.19
2023-01-30T21:52:45.109Z,101987.09
2023-01-30T21:55:11.564Z,101982.88
2023-01-30T21:57:37.973Z,101987.84
2023-01-30T22:00:04.769Z,101985.63
2023-01-30T22:02:31.654Z,101996.63
2023-01-30T22:04:58.047Z,102002.69
2023-01-30T22:07:24.426Z,102002.81
2023-01-30T22:09:50.811Z,102010.72
2023-01-30T22:12:17.170Z,102011.63
2023-01-30T22:14:43.563Z,102003.06
2023-01-30T22:17:10.029Z,101998.06
2023-01-30T22:19:36.836Z,102006.84
2023-01-30T22:22:03.588Z,102012.94
2023-01-30T22:24:30.413Z,102009.41
2023-01-30T22:26:56.824Z,102013.75
2023-01-30T22:29:23.240Z,102010.41
2023-01-30T22:31:49.830Z,102011.34
2023-01-30T22:34:16.297Z,102013.19
2023-01-30T22:36:42.705Z,102018.44
2023-01-30T22:39:09.172Z,102016.69
2023-01-30T22:41:36.217Z,102019.34
2023-01-30T22:44:04.157Z,102021.09
2023-01-30T22:46:32.442Z,102024.59
2023-01-30T22:49:02.594Z,102027.19
2023-01-30T22:51:30.216Z,102017.13
2023-01-30T22:53:57.534Z,102011.06
2023-01-30T22:56:25.637Z,102022.28
2023-01-30T22:58:52.367Z,102030.03
2023-01-30T23:01:23.342Z,102030.13
2023-01-30T23:03:54.054Z,102033.72
2023-01-30T23:06:20.521Z,102023.50
2023-01-30T23:08:47.739Z,102028.72
2023-01-30T23:11:31.240Z,102023.66
2023-01-30T23:13:59.439Z,102021.06
2023-01-30T23:16:27.864Z,102027.16
2023-01-30T23:18:58.576Z,102029.84
2023-01-30T23:21:32.203Z,102017.81
2023-01-30T23:24:00.112Z,102017.81
2023-01-30T23:26:29.056Z,102017.00
2023-01-30T23:28:55.819Z,102028.16
2023-01-30T23:31:23.811Z,102032.41
2023-01-30T23:33:57.218Z,102026.50
2023-01-30T23:36:23.789Z,102021.44
2023-01-30T23:38:53.711Z,102030.09
2023-01-30T23:41:21.227Z,102033.50
2023-01-30T23:43:48.075Z,102033.50
2023-01-30T23:46:16.125Z,102037.84
2023-01-30T23:48:43.415Z,102032.47
2023-01-30T23:51:09.988Z,102048.78
2023-01-30T23:53:37.701Z,102037.66
2023-01-30T23:56:04.269Z,102039.41
2023-01-30T23:58:30.702Z,102035.06
